createdAt,value
2022-09-14T00:01:28.494Z,7.50
2022-09-14T00:03:56.674Z,7.97
2022-09-14T00:06:24.218Z,7.50
2022-09-14T00:08:52.709Z,7.80
2022-09-14T00:11:20.732Z,7.57
2022-09-14T00:13:48.427Z,6.97
2022-09-14T00:16:17.678Z,7.53
2022-09-14T00:18:45.213Z,7.47
2022-09-14T00:21:13.165Z,7.77
2022-09-14T00:23:42.108Z,7.37
2022-09-14T00:26:11.121Z,8.00
2022-09-14T00:28:38.869Z,7.53
2022-09-14T00:31:06.484Z,7.27
2022-09-14T00:33:34.220Z,7.87
2022-09-14T00:36:27.822Z,7.87
2022-09-14T00:38:56.520Z,7.30
2022-09-14T00:41:25.117Z,7.67
2022-09-14T00:44:04.171Z,7.63
2022-09-14T00:46:32.484Z,7.77
2022-09-14T00:49:00.539Z,7.57
2022-09-14T00:51:29.212Z,7.77
2022-09-14T00:53:56.390Z,8.03
2022-09-14T00:56:23.597Z,8.20
2022-09-14T00:58:52.083Z,7.80
2022-09-14T01:01:19.284Z,8.53
2022-09-14T01:03:46.500Z,9.50
2022-09-14T01:06:13.680Z,10.43
2022-09-14T01:08:53.265Z,9.67
2022-09-14T01:11:20.289Z,11.17
2022-09-14T01:14:06.108Z,11.13
2022-09-14T01:16:48.545Z,11.63
2022-09-14T01:19:29.657Z,10.97
2022-09-14T01:21:59.106Z,13.00
2022-09-14T01:24:38.356Z,13.37
2022-09-14T01:27:13.805Z,14.00
2022-09-14T01:29:59.608Z,13.20
2022-09-14T01:32:29.308Z,12.90
2022-09-14T01:35:15.918Z,13.53
2022-09-14T01:37:54.657Z,13.60
2022-09-14T01:40:31.549Z,14.63
2022-09-14T01:43:00.853Z,13.53
2022-09-14T01:45:29.505Z,13.87
2022-09-14T01:48:04.476Z,13.97
2022-09-14T01:50:54.912Z,15.03
2022-09-14T01:53:28.211Z,15.70
2022-09-14T01:56:04.483Z,14.97
2022-09-14T01:58:35.710Z,16.30
2022-09-14T02:01:04.618Z,16.07
2022-09-14T02:03:38.720Z,17.23
2022-09-14T02:06:05.941Z,17.47
2022-09-14T02:08:33.424Z,18.53
2022-09-14T02:11:00.975Z,18.20
2022-09-14T02:13:28.366Z,19.30
2022-09-14T02:15:55.550Z,19.47
2022-09-14T02:18:22.709Z,20.10
2022-09-14T02:20:54.476Z,19.77
2022-09-14T02:23:21.957Z,17.90
2022-09-14T02:25:49.140Z,19.00
2022-09-14T02:28:16.469Z,20.10
2022-09-14T02:30:55.548Z,19.67
2022-09-14T02:33:40.044Z,20.63
2022-09-14T02:36:18.542Z,20.80
2022-09-14T02:38:50.202Z,20.70
2022-09-14T02:41:23.152Z,21.80
2022-09-14T02:43:55.742Z,21.87
2022-09-14T02:46:34.931Z,21.63
2022-09-14T02:49:12.619Z,23.57
2022-09-14T02:51:47.839Z,25.43
2022-09-14T02:54:29.091Z,26.47
2022-09-14T02:56:56.185Z,27.90
2022-09-14T02:59:23.270Z,29.30
2022-09-14T03:01:50.420Z,30.07
2022-09-14T03:04:17.563Z,31.20
2022-09-14T03:06:44.815Z,30.03
2022-09-14T03:09:11.947Z,27.70
2022-09-14T03:11:39.083Z,28.70
2022-09-14T03:14:06.157Z,30.70
2022-09-14T03:16:33.313Z,29.27
2022-09-14T03:19:00.458Z,28.37
2022-09-14T03:21:27.515Z,28.17
2022-09-14T03:23:56.961Z,28.23
2022-09-14T03:26:24.558Z,26.70
2022-09-14T03:28:55.855Z,26.10
2022-09-14T03:31:23.582Z,27.57
2022-09-14T03:33:55.133Z,26.63
2022-09-14T03:36:22.289Z,25.07
2022-09-14T03:38:50.627Z,26.17
2022-09-14T03:41:18.387Z,26.33
2022-09-14T03:43:46.151Z,27.17
2022-09-14T03:46:14.517Z,26.97
2022-09-14T03:48:42.095Z,30.90
2022-09-14T03:51:10.067Z,29.53
2022-09-14T03:53:37.606Z,30.43
2022-09-14T03:56:11.462Z,30.67
2022-09-14T03:58:38.707Z,28.97
2022-09-14T04:01:09.860Z,32.17
2022-09-14T04:03:37.346Z,30.97
2022-09-14T04:06:08.432Z,31.20
2022-09-14T04:08:36.593Z,33.83
2022-09-14T04:11:08.119Z,34.33
2022-09-14T04:13:35.483Z,33.47
2022-09-14T04:16:02.870Z,34.70
2022-09-14T04:18:30.007Z,34.63
2022-09-14T04:20:58.076Z,36.07
2022-09-14T04:23:25.737Z,35.47
2022-09-14T04:25:53.539Z,39.13
2022-09-14T04:28:21.042Z,39.50
2022-09-14T04:31:01.676Z,42.30
2022-09-14T04:33:33.285Z,41.83
2022-09-14T04:36:19.981Z,42.23
2022-09-14T04:38:47.458Z,41.60
2022-09-14T04:41:15.816Z,42.03
2022-09-14T04:43:44.029Z,36.90
2022-09-14T04:46:12.546Z,37.23
2022-09-14T04:48:39.932Z,36.73
2022-09-14T04:51:08.562Z,38.70
2022-09-14T04:53:36.253Z,37.60
2022-09-14T04:56:04.114Z,38.63
2022-09-14T04:58:31.375Z,38.97
2022-09-14T05:01:08.964Z,37.80
2022-09-14T05:03:38.862Z,40.97
2022-09-14T05:06:06.975Z,38.53
2022-09-14T05:08:35.940Z,36.70
2022-09-14T05:11:03.461Z,35.33
2022-09-14T05:13:30.572Z,37.13
2022-09-14T05:16:05.513Z,37.80
2022-09-14T05:18:32.946Z,40.40
2022-09-14T05:21:08.491Z,41.90
2022-09-14T05:23:36.127Z,41.93
2022-09-14T05:26:03.328Z,40.70
2022-09-14T05:28:31.048Z,39.23
2022-09-14T05:30:58.285Z,28.60
2022-09-14T05:33:25.626Z,34.20
2022-09-14T05:35:52.851Z,36.87
2022-09-14T05:38:19.930Z,38.20
2022-09-14T05:40:47.158Z,38.67
2022-09-14T05:43:14.251Z,37.77
2022-09-14T05:45:41.306Z,36.23
2022-09-14T05:48:08.499Z,36.60
2022-09-14T05:50:35.654Z,38.00
2022-09-14T05:53:02.774Z,36.20
2022-09-14T05:55:29.888Z,36.17
2022-09-14T05:57:56.993Z,37.57
2022-09-14T06:00:24.331Z,36.17
2022-09-14T06:02:52.577Z,35.77
2022-09-14T06:05:20.045Z,38.67
2022-09-14T06:07:51.073Z,36.77
2022-09-14T06:10:18.310Z,37.07
2022-09-14T06:12:45.448Z,36.17
2022-09-14T06:15:12.617Z,33.57
2022-09-14T06:17:39.877Z,35.63
2022-09-14T06:20:07.939Z,33.77
2022-09-14T06:22:35.056Z,31.00
2022-09-14T06:25:02.238Z,32.47
2022-09-14T06:27:29.344Z,32.37
2022-09-14T06:29:56.656Z,28.67
2022-09-14T06:32:23.812Z,30.27
2022-09-14T06:34:50.903Z,27.90
2022-09-14T06:37:18.024Z,30.13
2022-09-14T06:39:45.854Z,30.33
2022-09-14T06:42:13.014Z,31.63
2022-09-14T06:44:40.267Z,31.10
2022-09-14T06:47:07.808Z,30.93
2022-09-14T06:49:34.928Z,31.67
2022-09-14T06:52:02.094Z,30.20
2022-09-14T06:54:29.262Z,31.10
2022-09-14T06:56:56.399Z,30.00
2022-09-14T06:59:23.592Z,29.63
2022-09-14T07:01:50.783Z,30.47
2022-09-14T07:04:18.256Z,29.30
2022-09-14T07:06:49.597Z,27.77
2022-09-14T07:09:17.360Z,29.43
2022-09-14T07:11:45.512Z,28.93
2022-09-14T07:14:13.135Z,27.03
2022-09-14T07:16:40.784Z,26.63
2022-09-14T07:19:10.170Z,25.40
2022-09-14T07:21:37.258Z,25.60
2022-09-14T07:24:05.948Z,26.00
2022-09-14T07:26:35.355Z,24.60
2022-09-14T07:29:04.508Z,22.80
2022-09-14T07:31:33.302Z,23.40
2022-09-14T07:34:02.647Z,23.13
2022-09-14T07:36:34.547Z,22.13
2022-09-14T07:39:02.839Z,21.10
2022-09-14T07:41:30.767Z,19.20
2022-09-14T07:44:00.453Z,18.50
2022-09-14T07:46:28.771Z,18.17
2022-09-14T07:48:57.131Z,18.90
2022-09-14T07:51:24.304Z,16.30
2022-09-14T07:53:51.437Z,17.17
2022-09-14T07:56:18.707Z,18.73
2022-09-14T07:58:45.864Z,19.60
2022-09-14T08:01:14.808Z,16.40
2022-09-14T08:03:43.516Z,16.87
2022-09-14T08:06:14.641Z,15.30
2022-09-14T08:08:43.036Z,14.87
2022-09-14T08:11:11.797Z,14.10
2022-09-14T08:13:40.191Z,13.60
2022-09-14T08:16:07.392Z,14.60
2022-09-14T08:18:35.262Z,13.83
2022-09-14T08:21:06.909Z,14.50
2022-09-14T08:23:34.636Z,15.07
2022-09-14T08:26:06.033Z,14.87
2022-09-14T08:28:33.878Z,15.23
2022-09-14T08:31:05.024Z,13.33
2022-09-14T08:33:33.450Z,12.33
2022-09-14T08:36:00.868Z,11.50
2022-09-14T08:38:28.300Z,8.77
2022-09-14T08:40:55.818Z,7.00
2022-09-14T08:43:25.492Z,6.50
2022-09-14T08:45:55.886Z,6.20
2022-09-14T08:48:45.409Z,6.72
2022-09-14T08:51:12.610Z,6.90
2022-09-14T08:53:41.710Z,6.57
2022-09-14T08:56:19.374Z,6.80
2022-09-14T08:59:07.264Z,6.85
2022-09-14T09:01:40.998Z,6.95
2022-09-14T09:04:17.500Z,6.45
2022-09-14T09:07:03.220Z,6.85
2022-09-14T09:09:34.397Z,7.25
2022-09-14T09:12:01.773Z,6.25
2022-09-14T09:14:36.381Z,6.75
2022-09-14T09:17:25.094Z,6.93
2022-09-14T09:19:59.540Z,6.57
2022-09-14T09:22:29.698Z,7.20
2022-09-14T09:24:57.562Z,6.30
2022-09-14T09:27:26.394Z,6.78
2022-09-14T09:29:53.566Z,6.13
2022-09-14T09:32:24.904Z,5.97
2022-09-14T09:34:52.698Z,6.20
2022-09-14T09:37:21.248Z,6.55
2022-09-14T09:39:49.086Z,5.75
2022-09-14T09:42:26.486Z,4.70
2022-09-14T09:45:00.653Z,5.25
2022-09-14T09:47:28.801Z,4.18
2022-09-14T09:50:07.017Z,3.55
2022-09-14T09:52:34.779Z,3.17
2022-09-14T09:55:03.227Z,3.22
2022-09-14T09:57:35.188Z,2.60
2022-09-14T10:00:11.401Z,2.63
2022-09-14T10:02:38.776Z,2.80
2022-09-14T10:05:18.812Z,2.85
2022-09-14T10:08:13.023Z,3.35
2022-09-14T10:10:43.003Z,3.75
2022-09-14T10:13:28.834Z,3.53
2022-09-14T10:16:05.803Z,3.58
2022-09-14T10:18:32.964Z,3.22
2022-09-14T10:21:00.071Z,3.33
2022-09-14T10:23:28.482Z,3.20
2022-09-14T10:26:15.821Z,3.10
2022-09-14T10:28:47.088Z,3.03
2022-09-14T10:31:20.161Z,3.00
2022-09-14T10:33:48.518Z,2.50
2022-09-14T10:36:38.280Z,2.88
2022-09-14T10:39:05.348Z,2.70
2022-09-14T10:41:50.570Z,2.50
2022-09-14T10:44:36.380Z,3.00
2022-09-14T10:47:22.192Z,2.90
2022-09-14T10:50:19.590Z,2.80
2022-09-14T10:53:00.873Z,2.95
2022-09-14T10:56:03.804Z,3.03
2022-09-14T10:58:49.651Z,3.15
2022-09-14T11:01:22.893Z,2.80
2022-09-14T11:04:06.821Z,2.92
2022-09-14T11:06:57.165Z,3.10
2022-09-14T11:09:31.397Z,2.55
2022-09-14T11:12:12.055Z,3.20
2022-09-14T11:14:51.687Z,3.30
2022-09-14T11:17:36.894Z,3.30
2022-09-14T11:20:22.566Z,3.38
2022-09-14T11:22:58.722Z,3.63
2022-09-14T11:25:33.448Z,3.83
2022-09-14T11:28:04.488Z,4.25
2022-09-14T11:30:43.583Z,4.70
2022-09-14T11:33:30.875Z,4.40
2022-09-14T11:36:16.684Z,5.20
2022-09-14T11:38:47.177Z,5.53
2022-09-14T11:41:24.587Z,5.15
2022-09-14T11:44:11.948Z,4.63
2022-09-14T11:46:41.531Z,4.88
2022-09-14T11:49:18.793Z,5.00
2022-09-14T11:51:48.933Z,4.80
2022-09-14T11:54:18.070Z,4.78
2022-09-14T11:56:48.533Z,4.95
2022-09-14T11:59:35.708Z,5.07
2022-09-14T12:02:21.459Z,5.22
2022-09-14T12:05:07.235Z,4.95
2022-09-14T12:07:43.431Z,5.10
2022-09-14T12:10:16.706Z,5.40
2022-09-14T12:12:44.889Z,5.22
2022-09-14T12:15:14.825Z,5.95
2022-09-14T12:17:42.050Z,5.25
2022-09-14T12:20:28.510Z,4.97
2022-09-14T12:23:24.928Z,5.00
2022-09-14T12:25:54.929Z,5.18
2022-09-14T12:28:39.873Z,4.88
2022-09-14T12:31:07.089Z,4.95
2022-09-14T12:33:34.268Z,5.35
2022-09-14T12:36:02.689Z,4.90
2022-09-14T12:38:29.744Z,5.07
2022-09-14T12:41:02.388Z,5.25
2022-09-14T12:43:35.369Z,5.00
2022-09-14T12:46:02.620Z,4.93
2022-09-14T12:48:48.075Z,4.88
2022-09-14T12:51:28.986Z,4.95
2022-09-14T12:54:01.248Z,5.00
2022-09-14T12:56:32.258Z,5.07
2022-09-14T12:58:59.944Z,5.60
2022-09-14T13:01:35.435Z,6.03
2022-09-14T13:04:03.216Z,5.55
2022-09-14T13:06:36.049Z,5.40
2022-09-14T13:09:07.471Z,5.63
2022-09-14T13:11:39.017Z,5.70
2022-09-14T13:14:06.269Z,6.72
2022-09-14T13:16:48.686Z,5.68
2022-09-14T13:19:24.618Z,6.25
2022-09-14T13:21:53.392Z,6.15
2022-09-14T13:24:28.750Z,6.22
2022-09-14T13:26:57.917Z,6.07
2022-09-14T13:29:26.726Z,6.40
2022-09-14T13:31:54.283Z,6.78
2022-09-14T13:34:26.561Z,6.55
2022-09-14T13:36:54.055Z,6.50
2022-09-14T13:39:26.543Z,6.97
2022-09-14T13:41:54.514Z,7.20
2022-09-14T13:44:27.300Z,6.90
2022-09-14T13:46:55.718Z,7.03
2022-09-14T13:49:22.986Z,6.68
2022-09-14T13:51:50.340Z,6.68
2022-09-14T13:54:19.520Z,7.00
2022-09-14T13:56:47.352Z,7.40
2022-09-14T13:59:16.140Z,7.20
2022-09-14T14:01:55.542Z,7.55
2022-09-14T14:04:36.043Z,7.57
2022-09-14T14:07:16.627Z,7.75
2022-09-14T14:09:54.237Z,7.88
2022-09-14T14:12:27.083Z,7.93
2022-09-14T14:14:55.403Z,9.32
2022-09-14T14:17:22.516Z,8.88
2022-09-14T14:19:50.104Z,9.77
2022-09-14T14:22:20.883Z,10.13
2022-09-14T14:25:12.479Z,10.15
2022-09-14T14:27:37.730Z,11.93
2022-09-14T14:30:13.339Z,11.02
2022-09-14T14:32:40.615Z,12.55
2022-09-14T14:35:18.629Z,14.40
2022-09-14T14:37:45.748Z,15.63
2022-09-14T14:40:13.848Z,14.18
2022-09-14T14:42:41.539Z,18.27
2022-09-14T14:45:14.208Z,17.83
2022-09-14T14:47:41.420Z,19.13
2022-09-14T14:50:15.725Z,12.00
2022-09-14T14:52:42.838Z,14.10
2022-09-14T14:55:10.610Z,16.50
2022-09-14T14:57:40.891Z,18.03
2022-09-14T15:00:13.270Z,20.10
2022-09-14T15:02:40.388Z,20.67
2022-09-14T15:05:07.934Z,23.80
2022-09-14T15:07:37.724Z,25.23
2022-09-14T15:10:06.430Z,25.77
2022-09-14T15:12:34.066Z,20.33
2022-09-14T15:15:01.517Z,13.18
2022-09-14T15:17:28.616Z,9.03
2022-09-14T15:19:55.694Z,8.00
2022-09-14T15:22:22.769Z,7.47
2022-09-14T15:24:50.007Z,6.80
2022-09-14T15:27:17.215Z,6.20
2022-09-14T15:29:44.297Z,5.10
2022-09-14T15:32:11.508Z,4.33
2022-09-14T15:34:38.769Z,3.53
2022-09-14T15:37:05.931Z,3.37
2022-09-14T15:39:33.110Z,2.83
2022-09-14T15:42:00.273Z,2.70
2022-09-14T15:44:27.424Z,2.90
2022-09-14T15:46:56.084Z,2.93
2022-09-14T15:49:24.124Z,3.17
2022-09-14T15:51:52.249Z,2.80
2022-09-14T15:54:26.207Z,3.10
2022-09-14T15:56:54.825Z,3.20
2022-09-14T15:59:22.348Z,3.23
2022-09-14T16:01:49.514Z,3.30
2022-09-14T16:04:17.562Z,3.40
2022-09-14T16:06:44.681Z,3.77
2022-09-14T16:09:12.419Z,3.40
2022-09-14T16:11:40.136Z,3.70
2022-09-14T16:14:07.997Z,3.53
2022-09-14T16:16:35.601Z,4.00
2022-09-14T16:19:09.709Z,4.37
2022-09-14T16:21:37.186Z,3.50
2022-09-14T16:24:06.122Z,3.37
2022-09-14T16:26:34.594Z,3.80
2022-09-14T16:29:01.678Z,3.20
2022-09-14T16:31:33.375Z,3.50
2022-09-14T16:34:02.228Z,3.30
2022-09-14T16:36:30.907Z,3.60
2022-09-14T16:38:58.959Z,3.03
2022-09-14T16:41:27.475Z,3.53
2022-09-14T16:43:58.543Z,3.13
2022-09-14T16:46:26.281Z,3.40
2022-09-14T16:48:53.810Z,3.20
2022-09-14T16:51:22.321Z,3.03
2022-09-14T16:53:49.964Z,3.50
2022-09-14T16:56:17.320Z,3.53
2022-09-14T16:58:45.402Z,3.20
2022-09-14T17:01:12.582Z,3.43
2022-09-14T17:03:40.006Z,3.20
2022-09-14T17:06:08.793Z,3.10
2022-09-14T17:08:38.720Z,3.00
2022-09-14T17:11:09.314Z,2.93
2022-09-14T17:13:37.016Z,2.90
2022-09-14T17:16:05.398Z,2.60
2022-09-14T17:18:33.128Z,3.10
2022-09-14T17:21:01.919Z,3.10
2022-09-14T17:23:29.276Z,2.67
2022-09-14T17:25:56.502Z,3.37
2022-09-14T17:28:25.721Z,3.10
2022-09-14T17:30:56.125Z,3.20
2022-09-14T17:33:23.520Z,2.67
2022-09-14T17:35:51.448Z,3.00
2022-09-14T17:38:19.159Z,2.90
2022-09-14T17:40:46.310Z,3.00
2022-09-14T17:43:13.493Z,3.00
2022-09-14T17:45:41.134Z,3.70
2022-09-14T17:48:08.638Z,3.07
2022-09-14T17:50:39.622Z,3.20
2022-09-14T17:53:06.709Z,3.30
2022-09-14T17:55:33.918Z,3.20
2022-09-14T17:58:01.006Z,3.50
2022-09-14T18:00:28.150Z,3.90
2022-09-14T18:02:55.618Z,3.70
2022-09-14T18:05:22.853Z,5.47
2022-09-14T18:07:51.326Z,3.93
2022-09-14T18:10:19.197Z,3.40
2022-09-14T18:12:46.570Z,3.33
2022-09-14T18:15:15.390Z,3.03
2022-09-14T18:17:43.254Z,3.10
2022-09-14T18:20:10.912Z,2.87
2022-09-14T18:22:38.837Z,3.03
2022-09-14T18:25:06.657Z,2.77
2022-09-14T18:27:33.769Z,2.93
2022-09-14T18:30:01.936Z,3.13
2022-09-14T18:32:29.191Z,3.60
2022-09-14T18:34:56.299Z,3.47
2022-09-14T18:37:24.008Z,3.40
2022-09-14T18:39:51.470Z,3.70
2022-09-14T18:42:18.653Z,3.97
2022-09-14T18:44:45.736Z,3.70
2022-09-14T18:47:13.442Z,3.90
2022-09-14T18:49:40.545Z,3.80
2022-09-14T18:52:07.730Z,4.20
2022-09-14T18:54:34.833Z,4.00
2022-09-14T18:57:01.933Z,4.33
2022-09-14T18:59:29.055Z,4.50
2022-09-14T19:01:56.442Z,5.50
2022-09-14T19:04:23.618Z,4.60
2022-09-14T19:06:50.812Z,6.50
2022-09-14T19:09:17.982Z,6.20
2022-09-14T19:11:45.109Z,5.23
2022-09-14T19:14:13.348Z,5.80
2022-09-14T19:16:41.504Z,6.10
2022-09-14T19:19:09.260Z,5.43
2022-09-14T19:21:36.380Z,5.33
2022-09-14T19:24:06.110Z,5.73
2022-09-14T19:26:34.858Z,7.17
2022-09-14T19:29:03.553Z,7.13
2022-09-14T19:31:31.313Z,6.43
2022-09-14T19:33:59.162Z,6.30
2022-09-14T19:36:27.426Z,6.53
2022-09-14T19:38:55.239Z,7.13
2022-09-14T19:41:22.483Z,7.20
2022-09-14T19:43:49.936Z,6.60
2022-09-14T19:46:21.182Z,6.50
2022-09-14T19:48:48.377Z,6.33
2022-09-14T19:51:20.012Z,5.77
2022-09-14T19:53:48.464Z,6.23
2022-09-14T19:56:16.614Z,6.77
2022-09-14T19:58:46.963Z,5.97
2022-09-14T20:01:14.729Z,5.87
2022-09-14T20:03:41.996Z,5.73
2022-09-14T20:06:10.586Z,6.40
2022-09-14T20:08:37.882Z,6.40
2022-09-14T20:11:09.095Z,6.00
2022-09-14T20:13:36.859Z,6.33
2022-09-14T20:16:13.901Z,6.73
2022-09-14T20:18:41.747Z,5.93
2022-09-14T20:21:10.071Z,6.33
2022-09-14T20:23:45.238Z,5.90
2022-09-14T20:26:19.696Z,6.43
2022-09-14T20:28:46.885Z,6.17
2022-09-14T20:31:14.438Z,6.43
2022-09-14T20:33:41.631Z,6.07
2022-09-14T20:36:10.191Z,5.87
2022-09-14T20:38:37.780Z,6.33
2022-09-14T20:41:09.062Z,5.80
2022-09-14T20:43:39.054Z,5.70
2022-09-14T20:46:11.509Z,4.60
2022-09-14T20:48:39.220Z,5.23
2022-09-14T20:51:07.026Z,5.57
2022-09-14T20:53:35.641Z,5.47
2022-09-14T20:56:04.390Z,5.63
2022-09-14T20:58:31.646Z,5.30
2022-09-14T21:01:06.255Z,5.30
2022-09-14T21:03:33.702Z,5.30
2022-09-14T21:06:01.679Z,5.00
2022-09-14T21:08:33.234Z,5.40
2022-09-14T21:11:04.673Z,4.87
2022-09-14T21:13:31.924Z,5.17
2022-09-14T21:15:59.140Z,5.13
2022-09-14T21:18:26.370Z,4.93
2022-09-14T21:20:53.467Z,4.37
2022-09-14T21:23:20.575Z,3.70
2022-09-14T21:25:54.257Z,3.97
2022-09-14T21:28:21.376Z,4.10
2022-09-14T21:30:49.290Z,3.83
2022-09-14T21:33:16.585Z,3.80
2022-09-14T21:35:43.929Z,4.00
2022-09-14T21:38:11.140Z,3.87
2022-09-14T21:40:38.740Z,3.83
2022-09-14T21:43:05.849Z,3.83
2022-09-14T21:45:32.945Z,3.93
2022-09-14T21:48:00.010Z,4.20
2022-09-14T21:50:27.153Z,4.30
2022-09-14T21:52:54.211Z,4.00
2022-09-14T21:55:21.343Z,4.07
2022-09-14T21:57:50.414Z,4.00
2022-09-14T22:00:17.680Z,4.57
2022-09-14T22:02:44.883Z,4.00
2022-09-14T22:05:12.727Z,4.03
2022-09-14T22:07:42.229Z,3.93
2022-09-14T22:10:10.728Z,5.03
2022-09-14T22:12:37.872Z,4.67
2022-09-14T22:15:05.148Z,4.60
2022-09-14T22:17:33.192Z,4.70
2022-09-14T22:20:00.700Z,4.87
2022-09-14T22:22:28.069Z,5.10
2022-09-14T22:24:55.173Z,5.17
2022-09-14T22:27:22.261Z,5.40
2022-09-14T22:29:49.375Z,5.47
2022-09-14T22:32:16.511Z,5.70
2022-09-14T22:34:48.849Z,4.70
2022-09-14T22:37:16.774Z,4.90
2022-09-14T22:39:43.982Z,5.60
2022-09-14T22:42:11.110Z,6.00
2022-09-14T22:44:38.208Z,5.57
2022-09-14T22:47:05.321Z,5.03
2022-09-14T22:49:32.519Z,5.70
2022-09-14T22:51:59.619Z,5.23
2022-09-14T22:54:26.751Z,4.60
2022-09-14T22:56:53.856Z,5.40
2022-09-14T22:59:20.994Z,5.43
2022-09-14T23:01:48.150Z,5.67
2022-09-14T23:04:15.550Z,5.27
2022-09-14T23:06:45.932Z,5.30
2022-09-14T23:09:14.709Z,5.20
2022-09-14T23:11:44.471Z,5.17
2022-09-14T23:14:12.266Z,4.63
2022-09-14T23:16:39.491Z,4.50
2022-09-14T23:19:07.074Z,4.80
2022-09-14T23:21:34.582Z,4.60
2022-09-14T23:24:03.625Z,4.20
2022-09-14T23:26:30.835Z,4.30
2022-09-14T23:29:00.416Z,3.73
2022-09-14T23:31:29.003Z,3.83
2022-09-14T23:33:57.015Z,3.70
2022-09-14T23:36:24.475Z,3.60
2022-09-14T23:38:51.950Z,4.00
2022-09-14T23:41:20.168Z,3.13
2022-09-14T23:43:47.728Z,3.40
2022-09-14T23:46:15.725Z,3.50
2022-09-14T23:48:43.189Z,3.60
2022-09-14T23:51:10.782Z,3.47
2022-09-14T23:53:38.037Z,3.90
2022-09-14T23:56:05.527Z,3.40
2022-09-14T23:58:32.941Z,3.70
